createdAt,value
2022-08-02T00:00:55.542Z,2.63
2022-08-02T00:03:25.167Z,2.22
2022-08-02T00:05:54.302Z,2.30
2022-08-02T00:08:23.440Z,2.53
2022-08-02T00:10:53.895Z,2.67
2022-08-02T00:13:23.359Z,2.40
2022-08-02T00:15:52.505Z,2.70
2022-08-02T00:18:21.438Z,2.40
2022-08-02T00:20:50.378Z,2.10
2022-08-02T00:23:19.285Z,2.10
2022-08-02T00:25:55.269Z,2.60
2022-08-02T00:28:28.340Z,2.30
2022-08-02T00:30:58.196Z,2.83
2022-08-02T00:34:26.440Z,2.67
2022-08-02T00:36:17.212Z,2.70
2022-08-02T00:38:47.906Z,2.60
2022-08-02T00:41:19.386Z,2.30
2022-08-02T00:43:51.071Z,2.63
2022-08-02T00:46:21.578Z,2.75
2022-08-02T00:48:51.072Z,2.60
2022-08-02T00:51:19.986Z,2.50
2022-08-02T00:53:49.109Z,2.60
2022-08-02T00:56:18.077Z,2.70
2022-08-02T00:58:46.938Z,2.90
2022-08-02T01:01:17.690Z,2.90
2022-08-02T01:03:46.740Z,2.65
2022-08-02T01:06:15.726Z,2.72
2022-08-02T01:08:44.658Z,2.80
2022-08-02T01:11:14.159Z,2.97
2022-08-02T01:13:43.509Z,2.83
2022-08-02T01:16:20.124Z,3.03
2022-08-02T01:18:55.164Z,3.00
2022-08-02T01:21:55.627Z,2.70
2022-08-02T01:24:56.806Z,2.70
2022-08-02T01:27:44.463Z,2.90
2022-08-02T01:30:16.174Z,2.83
2022-08-02T01:32:51.620Z,2.70
2022-08-02T01:35:25.925Z,2.53
2022-08-02T01:37:59.837Z,2.80
2022-08-02T01:40:32.078Z,2.85
2022-08-02T01:43:02.681Z,2.95
2022-08-02T01:45:36.802Z,2.88
2022-08-02T01:48:07.874Z,3.03
2022-08-02T01:50:38.457Z,3.30
2022-08-02T01:53:10.503Z,2.65
2022-08-02T01:55:58.460Z,3.03
2022-08-02T01:58:30.864Z,2.83
2022-08-02T02:01:02.821Z,2.50
2022-08-02T02:03:33.875Z,2.88
2022-08-02T02:06:06.041Z,2.75
2022-08-02T02:08:44.927Z,3.10
2022-08-02T02:12:11.681Z,2.78
2022-08-02T05:55:14.261Z,3.85
2022-08-02T05:57:48.289Z,4.07
2022-08-02T06:00:15.877Z,3.72
2022-08-02T06:03:16.401Z,4.00
2022-08-02T06:05:51.154Z,3.30
2022-08-02T06:08:20.693Z,3.05
2022-08-02T06:10:51.554Z,3.70
2022-08-02T06:13:20.500Z,3.63
2022-08-02T06:15:53.494Z,3.63
2022-08-02T06:18:27.826Z,3.75
2022-08-02T06:20:58.060Z,3.53
2022-08-02T06:23:26.437Z,4.00
2022-08-02T06:25:56.124Z,3.35
2022-08-02T06:28:24.264Z,3.33
2022-08-02T06:30:51.487Z,3.60
2022-08-02T06:33:18.683Z,2.90
2022-08-02T06:39:46.512Z,2.88
2022-08-02T06:42:27.195Z,2.95
2022-08-02T06:44:58.442Z,2.58
2022-08-02T06:47:27.492Z,2.70
2022-08-02T06:49:58.237Z,2.78
2022-08-02T06:52:30.128Z,2.90
2022-08-02T06:55:02.204Z,2.75
2022-08-02T06:57:31.950Z,3.00
2022-08-02T07:00:02.913Z,2.78
2022-08-02T07:02:32.455Z,2.78
2022-08-02T07:05:01.298Z,2.58
2022-08-02T07:07:30.525Z,2.70
2022-08-02T07:10:01.954Z,2.42
2022-08-02T07:12:33.217Z,2.47
2022-08-02T07:15:04.222Z,2.25
2022-08-02T07:17:33.882Z,2.55
2022-08-02T07:20:03.252Z,2.78
2022-08-02T07:22:32.625Z,2.88
2022-08-02T07:25:03.246Z,2.45
2022-08-02T07:27:32.783Z,2.35
2022-08-02T07:30:02.309Z,2.63
2022-08-02T07:32:33.216Z,2.67
2022-08-02T07:35:06.528Z,2.35
2022-08-02T07:37:55.293Z,2.22
2022-08-02T07:40:29.471Z,2.53
2022-08-02T07:43:03.325Z,5.95
2022-08-02T07:45:35.959Z,3.67
2022-08-02T07:48:06.027Z,3.03
2022-08-02T07:50:35.046Z,2.58
2022-08-02T07:53:04.071Z,2.47
2022-08-02T07:55:39.993Z,2.42
2022-08-02T07:58:11.492Z,2.30
2022-08-02T08:00:43.819Z,2.70
2022-08-02T08:03:13.694Z,2.33
2022-08-02T08:05:42.916Z,2.35
2022-08-02T08:08:17.184Z,2.05
2022-08-02T08:10:48.306Z,2.42
2022-08-02T08:13:17.594Z,2.35
2022-08-02T08:15:52.461Z,2.58
2022-08-02T08:18:22.505Z,2.58
2022-08-02T08:20:52.169Z,2.15
2022-08-02T08:23:21.234Z,2.13
2022-08-02T08:25:51.663Z,2.47
2022-08-02T08:28:20.594Z,1.92
2022-08-02T08:30:49.567Z,2.10
2022-08-02T08:33:18.598Z,2.30
2022-08-02T08:35:47.587Z,2.45
2022-08-02T08:38:16.658Z,2.40
2022-08-02T08:40:46.104Z,2.40
2022-08-02T08:43:16.285Z,2.47
2022-08-02T08:45:45.619Z,2.10
2022-08-02T08:48:30.765Z,2.58
2022-08-02T08:51:08.368Z,2.70
2022-08-02T08:53:41.461Z,2.55
2022-08-02T08:56:16.037Z,2.30
2022-08-02T08:58:48.579Z,2.10
2022-08-02T09:01:17.913Z,2.20
2022-08-02T09:03:47.055Z,1.98
2022-08-02T09:06:16.382Z,2.17
2022-08-02T09:08:45.942Z,2.20
2022-08-02T09:11:16.519Z,2.15
2022-08-02T09:13:54.370Z,2.35
2022-08-02T09:16:31.708Z,2.38
2022-08-02T09:19:02.020Z,2.00
2022-08-02T09:21:38.781Z,2.25
2022-08-02T09:24:18.588Z,2.00
2022-08-02T09:26:48.517Z,2.15
2022-08-02T09:29:19.703Z,2.25
2022-08-02T09:31:51.639Z,2.05
2022-08-02T09:34:22.480Z,1.95
2022-08-02T09:36:54.518Z,2.05
2022-08-02T09:39:26.392Z,1.85
2022-08-02T09:42:10.718Z,1.90
2022-08-02T09:44:41.361Z,2.28
2022-08-02T09:47:16.749Z,1.83
2022-08-02T09:49:52.318Z,1.77
2022-08-02T09:52:37.182Z,1.85
2022-08-02T09:55:12.981Z,1.83
2022-08-02T09:57:42.029Z,1.77
2022-08-02T10:00:15.085Z,1.80
2022-08-02T10:03:11.044Z,1.42
2022-08-02T10:05:56.107Z,1.75
2022-08-02T10:08:33.146Z,1.80
2022-08-02T10:11:03.516Z,1.90
2022-08-02T10:13:37.119Z,1.95
2022-08-02T10:16:07.894Z,2.00
2022-08-02T10:18:39.266Z,1.85
2022-08-02T10:21:14.288Z,1.65
2022-08-02T10:23:46.481Z,1.90
2022-08-02T10:26:18.110Z,1.90
2022-08-02T10:28:51.341Z,1.73
2022-08-02T10:31:26.445Z,1.40
2022-08-02T10:33:59.104Z,1.70
2022-08-02T10:36:32.142Z,2.00
2022-08-02T10:39:03.098Z,1.77
2022-08-02T10:41:49.855Z,1.60
2022-08-02T10:44:25.028Z,1.77
2022-08-02T10:47:23.546Z,1.70
2022-08-02T10:49:54.650Z,1.73
2022-08-02T10:52:24.502Z,1.42
2022-08-02T10:54:57.675Z,1.50
2022-08-02T10:57:28.949Z,1.65
2022-08-02T11:00:01.999Z,1.67
2022-08-02T11:02:40.877Z,1.70
2022-08-02T11:05:12.236Z,1.70
2022-08-02T11:07:43.875Z,2.00
2022-08-02T11:10:30.858Z,1.50
2022-08-02T11:13:08.211Z,1.92
2022-08-02T11:16:05.389Z,1.42
2022-08-02T11:19:07.097Z,1.58
2022-08-02T11:21:37.260Z,1.50
2022-08-02T11:24:26.147Z,1.40
2022-08-02T11:26:55.680Z,1.42
2022-08-02T11:29:38.305Z,1.63
2022-08-02T11:32:09.286Z,1.55
2022-08-02T11:34:40.424Z,1.60
2022-08-02T11:37:10.332Z,1.35
2022-08-02T11:39:39.697Z,1.45
2022-08-02T11:42:08.824Z,1.52
2022-08-02T11:44:42.978Z,1.30
2022-08-02T11:47:12.643Z,1.40
2022-08-02T11:49:44.677Z,1.30
2022-08-02T11:52:15.551Z,1.40
2022-08-02T11:54:45.190Z,1.52
2022-08-02T11:57:20.179Z,1.48
2022-08-02T11:59:50.911Z,1.42
2022-08-02T12:02:21.231Z,1.30
2022-08-02T12:04:57.954Z,1.73
2022-08-02T12:07:34.876Z,2.30
2022-08-02T12:10:08.118Z,2.10
2022-08-02T12:12:49.013Z,1.65
2022-08-02T12:15:31.252Z,1.48
2022-08-02T12:18:18.538Z,1.33
2022-08-02T12:20:49.123Z,1.27
2022-08-02T12:23:18.018Z,1.40
2022-08-02T12:25:47.087Z,1.20
2022-08-02T12:28:18.275Z,1.27
2022-08-02T12:30:54.706Z,1.40
2022-08-02T12:33:25.150Z,1.17
2022-08-02T12:35:55.466Z,1.40
2022-08-02T12:38:24.402Z,1.58
2022-08-02T12:40:54.160Z,1.45
2022-08-02T12:43:25.239Z,1.33
2022-08-02T12:45:56.557Z,1.30
2022-08-02T12:48:37.366Z,1.67
2022-08-02T12:51:56.591Z,1.52
2022-08-02T12:54:18.949Z,1.50
2022-08-02T12:56:48.450Z,1.42
2022-08-02T12:59:38.747Z,1.67
2022-08-02T13:02:11.419Z,1.65
2022-08-02T13:04:41.322Z,1.63
2022-08-02T13:07:11.947Z,1.30
2022-08-02T13:09:44.795Z,1.50
2022-08-02T13:12:13.988Z,1.40
2022-08-02T13:14:43.274Z,1.50
2022-08-02T13:17:13.369Z,1.52
2022-08-02T13:19:45.126Z,1.67
2022-08-02T13:22:21.582Z,1.48
2022-08-02T13:24:56.723Z,1.40
2022-08-02T13:27:28.584Z,1.60
2022-08-02T13:29:59.173Z,1.55
2022-08-02T13:32:29.511Z,1.48
2022-08-02T13:34:59.446Z,1.80
2022-08-02T13:37:30.283Z,1.58
2022-08-02T13:40:21.321Z,1.52
2022-08-02T13:42:48.402Z,1.33
2022-08-02T13:45:17.794Z,1.35
2022-08-02T13:48:04.527Z,1.50
2022-08-02T13:50:34.629Z,1.40
2022-08-02T13:53:05.180Z,1.27
2022-08-02T13:55:34.514Z,1.45
2022-08-02T13:58:05.502Z,1.35
2022-08-02T14:00:36.333Z,1.20
2022-08-02T14:03:06.985Z,1.30
2022-08-02T14:05:48.235Z,1.60
2022-08-02T14:08:22.782Z,1.48
2022-08-02T14:10:52.877Z,1.40
2022-08-02T14:13:21.806Z,1.40
2022-08-02T14:15:51.288Z,1.45
2022-08-02T14:18:20.447Z,1.50
2022-08-02T14:20:49.514Z,1.40
2022-08-02T14:23:19.805Z,1.30
2022-08-02T14:26:14.186Z,1.40
2022-08-02T14:28:56.341Z,1.40
2022-08-02T14:31:25.315Z,1.27
2022-08-02T14:33:54.338Z,1.40
2022-08-02T14:36:27.639Z,1.48
2022-08-02T14:38:58.591Z,1.27
2022-08-02T14:41:27.674Z,1.40
2022-08-02T14:44:07.087Z,1.30
2022-08-02T14:46:40.346Z,1.40
2022-08-02T14:49:10.938Z,1.23
2022-08-02T14:51:43.589Z,1.40
2022-08-02T14:54:14.582Z,1.30
2022-08-02T14:56:44.251Z,1.50
2022-08-02T14:59:17.442Z,1.50
2022-08-02T15:01:46.533Z,1.30
2022-08-02T15:04:15.842Z,1.58
2022-08-02T15:06:44.526Z,1.25
2022-08-02T15:09:14.891Z,1.27
2022-08-02T15:11:48.283Z,1.40
2022-08-02T15:14:21.710Z,1.30
2022-08-02T15:16:57.549Z,1.50
2022-08-02T15:19:41.647Z,1.40
2022-08-02T15:22:19.218Z,1.70
2022-08-02T15:24:50.439Z,1.38
2022-08-02T15:27:19.405Z,1.48
2022-08-02T15:29:48.464Z,1.38
2022-08-02T15:32:19.780Z,1.42
2022-08-02T15:34:48.946Z,1.35
2022-08-02T15:37:17.917Z,1.65
2022-08-02T15:39:46.931Z,1.40
2022-08-02T15:42:18.465Z,1.40
2022-08-02T15:44:47.647Z,1.58
2022-08-02T15:47:17.235Z,1.40
2022-08-02T15:49:48.415Z,1.10
2022-08-02T15:52:17.893Z,1.40
2022-08-02T15:54:47.055Z,1.30
2022-08-02T15:57:17.241Z,1.60
2022-08-02T15:59:46.268Z,1.30
2022-08-02T16:02:16.304Z,1.35
2022-08-02T16:04:45.618Z,1.25
2022-08-02T16:07:14.483Z,1.38
2022-08-02T16:09:43.407Z,1.25
2022-08-02T16:12:12.832Z,1.38
2022-08-02T16:14:43.582Z,1.40
2022-08-02T16:17:12.588Z,1.60
2022-08-02T16:19:48.395Z,1.40
2022-08-02T16:22:18.838Z,1.40
2022-08-02T16:24:47.879Z,1.55
2022-08-02T16:27:16.973Z,1.48
2022-08-02T16:29:48.619Z,1.60
2022-08-02T16:32:17.713Z,1.20
2022-08-02T16:35:07.433Z,1.45
2022-08-02T16:37:50.390Z,1.42
2022-08-02T16:40:22.167Z,1.30
2022-08-02T16:42:51.301Z,1.38
2022-08-02T16:45:22.516Z,1.40
2022-08-02T16:47:57.351Z,1.30
2022-08-02T16:50:29.497Z,1.23
2022-08-02T16:52:59.200Z,1.50
2022-08-02T16:55:29.017Z,1.60
2022-08-02T16:58:00.442Z,1.30
2022-08-02T17:00:31.646Z,1.42
2022-08-02T17:03:13.193Z,1.30
2022-08-02T17:05:55.972Z,1.58
2022-08-02T17:08:31.429Z,1.42
2022-08-02T17:11:03.700Z,1.33
2022-08-02T17:13:34.379Z,1.30
2022-08-02T17:16:20.595Z,1.40
2022-08-02T17:18:56.332Z,1.50
2022-08-02T17:21:25.347Z,1.50
2022-08-02T17:24:05.191Z,1.60
2022-08-02T17:26:37.578Z,1.50
2022-08-02T17:29:15.184Z,1.75
2022-08-02T17:32:05.178Z,1.25
2022-08-02T17:34:35.661Z,1.38
2022-08-02T17:37:05.991Z,1.60
2022-08-02T17:39:43.807Z,1.50
2022-08-02T17:42:23.792Z,1.33
2022-08-02T17:44:54.712Z,1.10
2022-08-02T17:47:31.629Z,1.50
2022-08-02T17:50:12.500Z,1.60
2022-08-02T17:52:50.880Z,1.33
2022-08-02T17:55:21.817Z,1.70
2022-08-02T17:57:56.966Z,1.73
2022-08-02T18:00:34.669Z,1.55
2022-08-02T18:03:10.047Z,1.65
2022-08-02T18:05:53.325Z,1.42
2022-08-02T18:08:24.915Z,1.30
2022-08-02T18:10:55.643Z,1.42
2022-08-02T18:13:25.416Z,1.35
2022-08-02T18:16:03.871Z,1.40
2022-08-02T18:18:34.305Z,1.70
2022-08-02T18:23:58.220Z,1.55
2022-08-02T18:26:28.586Z,1.55
2022-08-02T18:28:58.895Z,1.25
2022-08-02T18:31:28.280Z,1.38
2022-08-02T18:34:02.337Z,1.33
2022-08-02T18:36:32.782Z,1.30
2022-08-02T18:39:07.668Z,1.70
2022-08-02T18:41:38.151Z,1.40
2022-08-02T18:44:07.258Z,1.50
2022-08-02T18:46:36.256Z,1.58
2022-08-02T18:49:14.675Z,1.42
2022-08-02T18:51:44.839Z,1.45
2022-08-02T18:54:14.665Z,1.63
2022-08-02T18:56:47.230Z,1.50
2022-08-02T18:59:16.875Z,1.70
2022-08-02T19:01:50.700Z,1.50
2022-08-02T19:04:27.741Z,1.30
2022-08-02T19:07:05.403Z,1.42
2022-08-02T19:09:39.846Z,1.63
2022-08-02T19:12:11.639Z,1.40
2022-08-02T19:14:41.448Z,1.40
2022-08-02T19:17:54.070Z,1.85
2022-08-02T19:20:01.348Z,1.50
2022-08-02T19:22:30.656Z,1.77
2022-08-02T19:25:01.429Z,2.13
2022-08-02T19:27:32.942Z,1.83
2022-08-02T19:30:03.562Z,1.95
2022-08-02T19:32:41.947Z,2.38
2022-08-02T19:35:29.798Z,1.95
2022-08-02T19:38:12.873Z,2.17
2022-08-02T19:40:42.945Z,2.00
2022-08-02T19:44:23.897Z,2.00
2022-08-02T19:46:02.209Z,2.53
2022-08-02T19:48:31.020Z,2.40
2022-08-02T19:51:02.070Z,2.20
2022-08-02T19:53:46.574Z,2.45
2022-08-02T19:56:24.715Z,2.53
2022-08-02T19:58:55.656Z,2.30
2022-08-02T20:01:36.880Z,2.15
2022-08-02T20:04:12.776Z,2.40
2022-08-02T20:06:47.604Z,1.80
2022-08-02T20:09:21.452Z,2.30
2022-08-02T20:11:54.844Z,2.38
2022-08-02T20:14:27.658Z,2.42
2022-08-02T20:16:57.305Z,2.45
2022-08-02T20:19:28.902Z,2.00
2022-08-02T20:22:00.823Z,2.33
2022-08-02T20:24:30.091Z,2.15
2022-08-02T20:26:59.713Z,1.75
2022-08-02T20:29:43.328Z,2.00
2022-08-02T20:32:21.773Z,2.03
2022-08-02T20:34:53.262Z,1.73
2022-08-02T20:37:59.422Z,2.10
2022-08-02T20:40:16.734Z,1.98
2022-08-02T20:42:47.701Z,2.03
2022-08-02T20:45:17.144Z,2.00
2022-08-02T20:47:50.822Z,1.83
2022-08-02T20:50:37.954Z,1.73
2022-08-02T20:53:24.151Z,2.13
2022-08-02T20:55:56.300Z,2.00
2022-08-02T20:58:27.266Z,1.98
2022-08-02T21:00:59.166Z,2.15
2022-08-02T21:03:39.398Z,2.30
2022-08-02T21:06:10.194Z,2.25
2022-08-02T21:08:40.671Z,1.80
2022-08-02T21:11:12.738Z,1.95
2022-08-02T21:13:47.206Z,1.85
2022-08-02T21:16:31.703Z,2.20
2022-08-02T21:19:02.779Z,2.10
2022-08-02T21:21:38.180Z,2.42
2022-08-02T21:24:11.335Z,2.08
2022-08-02T21:26:41.965Z,2.15
2022-08-02T21:29:13.639Z,2.17
2022-08-02T21:31:43.867Z,2.15
2022-08-02T21:34:26.472Z,2.53
2022-08-02T21:36:56.885Z,2.22
2022-08-02T21:39:27.296Z,2.08
2022-08-02T21:41:56.743Z,2.00
2022-08-02T21:44:25.466Z,1.90
2022-08-02T21:46:57.051Z,2.10
2022-08-02T21:50:09.625Z,2.25
2022-08-02T21:52:16.688Z,1.98
2022-08-02T21:54:47.886Z,2.38
2022-08-02T21:57:19.546Z,2.05
2022-08-02T21:59:53.026Z,2.28
2022-08-02T22:02:30.694Z,2.28
2022-08-02T22:05:02.711Z,2.38
2022-08-02T22:07:38.373Z,2.70
2022-08-02T22:10:10.115Z,2.15
2022-08-02T22:12:39.149Z,2.35
2022-08-02T22:15:10.209Z,2.33
2022-08-02T22:17:50.920Z,1.95
2022-08-02T22:20:22.073Z,2.22
2022-08-02T22:22:52.453Z,2.50
2022-08-02T22:25:36.180Z,2.20
2022-08-02T22:28:37.644Z,2.30
2022-08-02T22:30:59.946Z,2.42
2022-08-02T22:34:00.143Z,2.45
2022-08-02T22:36:31.844Z,2.42
2022-08-02T22:39:01.696Z,2.28
2022-08-02T22:42:02.124Z,2.20
2022-08-02T22:44:21.466Z,2.72
2022-08-02T22:46:50.522Z,2.30
2022-08-02T22:49:38.671Z,2.13
2022-08-02T22:52:11.796Z,2.40
2022-08-02T22:54:43.949Z,2.38
2022-08-02T22:57:17.747Z,2.72
2022-08-02T22:58:57.182Z,1.60
2022-08-02T22:59:59.880Z,2.30
2022-08-02T23:02:30.111Z,2.35
2022-08-02T23:04:59.512Z,2.30
2022-08-02T23:07:28.998Z,2.35
2022-08-02T23:10:07.820Z,2.50
2022-08-02T23:12:38.284Z,2.15
2022-08-02T23:15:08.257Z,2.63
2022-08-02T23:17:54.367Z,2.33
2022-08-02T23:20:23.458Z,2.10
2022-08-02T23:22:52.775Z,2.28
2022-08-02T23:25:24.753Z,2.75
2022-08-02T23:27:55.529Z,2.30
2022-08-02T23:30:24.654Z,2.38
2022-08-02T23:32:53.740Z,2.60
2022-08-02T23:35:22.893Z,2.42
2022-08-02T23:37:59.666Z,2.30
2022-08-02T23:40:40.509Z,2.50
2022-08-02T23:43:14.422Z,2.40
2022-08-02T23:45:45.503Z,2.10
2022-08-02T23:48:14.633Z,2.60
2022-08-02T23:50:43.572Z,2.22
2022-08-02T23:53:12.571Z,2.30
2022-08-02T23:55:41.582Z,2.20
2022-08-02T23:58:12.926Z,2.10
